sensor_id;sensor_type;location;lat;lon;timestamp;P1;durP1;ratioP1;P2;durP2;ratioP2
40971;SDS011;26701;47.408;19.174;2023-01-09T00:01:46;25.48;;;11.73;;
40971;SDS011;26701;47.408;19.174;2023-01-09T00:04:13;28.83;;;14.02;;
40971;SDS011;26701;47.408;19.174;2023-01-09T00:06:39;22.73;;;10.48;;
40971;SDS011;26701;47.408;19.174;2023-01-09T00:09:07;24.25;;;12.02;;
40971;SDS011;26701;47.408;19.174;2023-01-09T00:11:34;26.48;;;12.55;;
40971;SDS011;26701;47.408;19.174;2023-01-09T00:14:00;25.70;;;11.55;;
40971;SDS011;26701;47.408;19.174;2023-01-09T00:16:25;27.67;;;12.82;;
40971;SDS011;26701;47.408;19.174;2023-01-09T00:18:51;23.85;;;11.68;;
40971;SDS011;26701;47.408;19.174;2023-01-09T00:21:18;27.15;;;12.00;;
40971;SDS011;26701;47.408;19.174;2023-01-09T00:23:44;23.10;;;11.52;;
40971;SDS011;26701;47.408;19.174;2023-01-09T00:26:12;30.75;;;14.48;;
40971;SDS011;26701;47.408;19.174;2023-01-09T00:28:41;26.83;;;12.60;;
40971;SDS011;26701;47.408;19.174;2023-01-09T00:31:07;30.98;;;14.13;;
40971;SDS011;26701;47.408;19.174;2023-01-09T00:33:34;28.63;;;12.50;;
40971;SDS011;26701;47.408;19.174;2023-01-09T00:36:02;28.92;;;11.75;;
40971;SDS011;26701;47.408;19.174;2023-01-09T00:38:28;21.13;;;10.88;;
40971;SDS011;26701;47.408;19.174;2023-01-09T00:40:54;24.73;;;11.40;;
40971;SDS011;26701;47.408;19.174;2023-01-09T00:43:21;25.98;;;12.23;;
40971;SDS011;26701;47.408;19.174;2023-01-09T00:45:51;25.63;;;11.73;;
40971;SDS011;26701;47.408;19.174;2023-01-09T00:48:17;30.40;;;12.90;;
40971;SDS011;26701;47.408;19.174;2023-01-09T00:50:49;25.15;;;12.90;;
40971;SDS011;26701;47.408;19.174;2023-01-09T00:53:16;26.25;;;11.95;;
40971;SDS011;26701;47.408;19.174;2023-01-09T00:55:45;23.02;;;11.45;;
40971;SDS011;26701;47.408;19.174;2023-01-09T00:58:11;25.63;;;11.90;;
40971;SDS011;26701;47.408;19.174;2023-01-09T01:00:37;23.48;;;11.63;;
40971;SDS011;26701;47.408;19.174;2023-01-09T01:03:03;24.67;;;11.77;;
40971;SDS011;26701;47.408;19.174;2023-01-09T01:05:29;24.58;;;11.95;;
40971;SDS011;26701;47.408;19.174;2023-01-09T01:08:14;24.40;;;11.93;;
40971;SDS011;26701;47.408;19.174;2023-01-09T01:10:42;24.90;;;11.73;;
40971;SDS011;26701;47.408;19.174;2023-01-09T01:13:08;26.40;;;10.80;;
40971;SDS011;26701;47.408;19.174;2023-01-09T01:15:37;24.40;;;12.30;;
40971;SDS011;26701;47.408;19.174;2023-01-09T01:18:03;25.77;;;11.93;;
40971;SDS011;26701;47.408;19.174;2023-01-09T01:20:29;23.35;;;11.43;;
40971;SDS011;26701;47.408;19.174;2023-01-09T01:22:55;23.13;;;11.93;;
40971;SDS011;26701;47.408;19.174;2023-01-09T01:25:21;20.00;;;9.25;;
40971;SDS011;26701;47.408;19.174;2023-01-09T01:27:47;26.88;;;12.10;;
40971;SDS011;26701;47.408;19.174;2023-01-09T01:30:14;22.15;;;10.15;;
40971;SDS011;26701;47.408;19.174;2023-01-09T01:32:40;26.40;;;11.77;;
40971;SDS011;26701;47.408;19.174;2023-01-09T01:35:06;24.13;;;11.38;;
40971;SDS011;26701;47.408;19.174;2023-01-09T01:37:33;26.63;;;11.57;;
40971;SDS011;26701;47.408;19.174;2023-01-09T01:40:00;22.88;;;10.43;;
40971;SDS011;26701;47.408;19.174;2023-01-09T01:42:26;19.25;;;9.57;;
40971;SDS011;26701;47.408;19.174;2023-01-09T01:44:56;22.67;;;10.75;;
40971;SDS011;26701;47.408;19.174;2023-01-09T01:47:26;26.15;;;12.02;;
40971;SDS011;26701;47.408;19.174;2023-01-09T01:50:35;23.45;;;11.35;;
40971;SDS011;26701;47.408;19.174;2023-01-09T01:58:50;29.08;;;12.30;;
40971;SDS011;26701;47.408;19.174;2023-01-09T02:01:41;24.25;;;11.43;;
40971;SDS011;26701;47.408;19.174;2023-01-09T02:04:09;24.73;;;12.07;;
40971;SDS011;26701;47.408;19.174;2023-01-09T02:06:36;26.52;;;12.02;;
40971;SDS011;26701;47.408;19.174;2023-01-09T02:09:03;24.23;;;11.73;;
40971;SDS011;26701;47.408;19.174;2023-01-09T02:11:30;24.60;;;12.48;;
40971;SDS011;26701;47.408;19.174;2023-01-09T02:13:56;25.33;;;10.57;;
40971;SDS011;26701;47.408;19.174;2023-01-09T02:16:29;25.17;;;12.07;;
40971;SDS011;26701;47.408;19.174;2023-01-09T02:26:56;23.02;;;10.05;;
40971;SDS011;26701;47.408;19.174;2023-01-09T02:32:09;25.38;;;11.48;;
40971;SDS011;26701;47.408;19.174;2023-01-09T02:37:30;21.50;;;11.55;;
40971;SDS011;26701;47.408;19.174;2023-01-09T02:42:56;20.15;;;11.35;;
40971;SDS011;26701;47.408;19.174;2023-01-09T02:45:24;23.25;;;11.55;;
40971;SDS011;26701;47.408;19.174;2023-01-09T02:47:50;26.27;;;11.88;;
40971;SDS011;26701;47.408;19.174;2023-01-09T02:50:18;22.25;;;10.02;;
40971;SDS011;26701;47.408;19.174;2023-01-09T02:58:47;32.75;;;13.25;;
40971;SDS011;26701;47.408;19.174;2023-01-09T03:04:29;29.00;;;12.60;;
40971;SDS011;26701;47.408;19.174;2023-01-09T03:06:53;34.33;;;15.32;;
40971;SDS011;26701;47.408;19.174;2023-01-09T03:09:27;25.35;;;12.57;;
40971;SDS011;26701;47.408;19.174;2023-01-09T03:12:02;26.20;;;12.35;;
40971;SDS011;26701;47.408;19.174;2023-01-09T03:14:31;25.42;;;12.63;;
40971;SDS011;26701;47.408;19.174;2023-01-09T03:17:00;26.05;;;13.07;;
40971;SDS011;26701;47.408;19.174;2023-01-09T03:19:30;28.10;;;13.45;;
40971;SDS011;26701;47.408;19.174;2023-01-09T03:21:58;19.05;;;9.48;;
40971;SDS011;26701;47.408;19.174;2023-01-09T03:24:24;26.00;;;13.02;;
40971;SDS011;26701;47.408;19.174;2023-01-09T03:26:50;22.02;;;11.13;;
40971;SDS011;26701;47.408;19.174;2023-01-09T03:29:18;29.67;;;14.23;;
40971;SDS011;26701;47.408;19.174;2023-01-09T03:31:44;27.67;;;12.80;;
40971;SDS011;26701;47.408;19.174;2023-01-09T03:34:09;26.10;;;12.38;;
40971;SDS011;26701;47.408;19.174;2023-01-09T03:36:35;25.00;;;11.57;;
40971;SDS011;26701;47.408;19.174;2023-01-09T03:39:01;24.42;;;11.32;;
40971;SDS011;26701;47.408;19.174;2023-01-09T03:41:27;28.10;;;12.35;;
40971;SDS011;26701;47.408;19.174;2023-01-09T03:43:53;23.25;;;11.68;;
40971;SDS011;26701;47.408;19.174;2023-01-09T03:46:19;23.55;;;12.90;;
40971;SDS011;26701;47.408;19.174;2023-01-09T03:48:45;27.33;;;13.35;;
40971;SDS011;26701;47.408;19.174;2023-01-09T03:51:11;24.38;;;11.73;;
40971;SDS011;26701;47.408;19.174;2023-01-09T03:53:37;22.80;;;11.38;;
40971;SDS011;26701;47.408;19.174;2023-01-09T03:56:03;23.35;;;11.95;;
40971;SDS011;26701;47.408;19.174;2023-01-09T03:58:29;24.20;;;11.88;;
40971;SDS011;26701;47.408;19.174;2023-01-09T04:01:02;19.95;;;10.55;;
40971;SDS011;26701;47.408;19.174;2023-01-09T04:03:29;20.60;;;9.93;;
40971;SDS011;26701;47.408;19.174;2023-01-09T04:05:55;24.95;;;10.90;;
40971;SDS011;26701;47.408;19.174;2023-01-09T04:08:21;24.00;;;11.35;;
40971;SDS011;26701;47.408;19.174;2023-01-09T04:10:48;23.00;;;10.60;;
40971;SDS011;26701;47.408;19.174;2023-01-09T04:13:14;22.30;;;10.70;;
40971;SDS011;26701;47.408;19.174;2023-01-09T04:15:41;24.42;;;10.93;;
40971;SDS011;26701;47.408;19.174;2023-01-09T04:18:07;25.33;;;11.73;;
40971;SDS011;26701;47.408;19.174;2023-01-09T04:20:33;27.60;;;11.98;;
40971;SDS011;26701;47.408;19.174;2023-01-09T04:22:59;25.48;;;11.93;;
40971;SDS011;26701;47.408;19.174;2023-01-09T04:25:26;21.67;;;11.85;;
40971;SDS011;26701;47.408;19.174;2023-01-09T04:27:52;24.42;;;11.50;;
40971;SDS011;26701;47.408;19.174;2023-01-09T04:30:18;22.27;;;11.45;;
40971;SDS011;26701;47.408;19.174;2023-01-09T04:32:44;23.05;;;10.93;;
40971;SDS011;26701;47.408;19.174;2023-01-09T04:35:10;25.10;;;11.57;;
40971;SDS011;26701;47.408;19.174;2023-01-09T04:37:37;23.77;;;11.57;;
40971;SDS011;26701;47.408;19.174;2023-01-09T04:40:03;22.85;;;10.45;;
40971;SDS011;26701;47.408;19.174;2023-01-09T04:42:36;21.33;;;11.20;;
40971;SDS011;26701;47.408;19.174;2023-01-09T04:45:06;22.35;;;11.95;;
40971;SDS011;26701;47.408;19.174;2023-01-09T04:47:34;27.15;;;11.70;;
40971;SDS011;26701;47.408;19.174;2023-01-09T04:50:00;25.67;;;12.30;;
40971;SDS011;26701;47.408;19.174;2023-01-09T04:52:26;25.40;;;12.13;;
40971;SDS011;26701;47.408;19.174;2023-01-09T04:54:52;27.73;;;13.15;;
40971;SDS011;26701;47.408;19.174;2023-01-09T04:57:18;27.15;;;14.43;;
40971;SDS011;26701;47.408;19.174;2023-01-09T04:59:44;29.13;;;15.10;;
40971;SDS011;26701;47.408;19.174;2023-01-09T05:02:11;23.63;;;11.65;;
40971;SDS011;26701;47.408;19.174;2023-01-09T05:04:36;22.05;;;11.27;;
40971;SDS011;26701;47.408;19.174;2023-01-09T05:07:03;25.88;;;12.82;;
40971;SDS011;26701;47.408;19.174;2023-01-09T05:09:29;27.27;;;13.93;;
40971;SDS011;26701;47.408;19.174;2023-01-09T05:11:54;30.38;;;14.48;;
40971;SDS011;26701;47.408;19.174;2023-01-09T05:14:21;33.00;;;13.88;;
40971;SDS011;26701;47.408;19.174;2023-01-09T05:16:46;30.15;;;14.38;;
40971;SDS011;26701;47.408;19.174;2023-01-09T05:19:12;25.80;;;13.95;;
40971;SDS011;26701;47.408;19.174;2023-01-09T05:21:38;28.45;;;13.77;;
40971;SDS011;26701;47.408;19.174;2023-01-09T05:24:04;27.35;;;12.95;;
40971;SDS011;26701;47.408;19.174;2023-01-09T05:26:30;26.38;;;13.07;;
40971;SDS011;26701;47.408;19.174;2023-01-09T05:28:56;26.02;;;13.73;;
40971;SDS011;26701;47.408;19.174;2023-01-09T05:31:23;25.65;;;13.23;;
40971;SDS011;26701;47.408;19.174;2023-01-09T05:33:51;32.45;;;14.63;;
40971;SDS011;26701;47.408;19.174;2023-01-09T05:36:17;30.83;;;14.93;;
40971;SDS011;26701;47.408;19.174;2023-01-09T05:38:43;30.02;;;14.27;;
40971;SDS011;26701;47.408;19.174;2023-01-09T05:41:09;27.17;;;13.27;;
40971;SDS011;26701;47.408;19.174;2023-01-09T05:43:35;27.85;;;13.75;;
40971;SDS011;26701;47.408;19.174;2023-01-09T05:46:02;23.40;;;12.38;;
40971;SDS011;26701;47.408;19.174;2023-01-09T05:48:28;25.88;;;12.93;;
40971;SDS011;26701;47.408;19.174;2023-01-09T05:50:54;27.33;;;13.20;;
40971;SDS011;26701;47.408;19.174;2023-01-09T05:53:20;31.90;;;14.50;;
40971;SDS011;26701;47.408;19.174;2023-01-09T05:55:45;30.23;;;15.63;;
40971;SDS011;26701;47.408;19.174;2023-01-09T05:58:11;30.08;;;14.00;;
40971;SDS011;26701;47.408;19.174;2023-01-09T06:00:38;28.20;;;14.27;;
40971;SDS011;26701;47.408;19.174;2023-01-09T06:03:03;27.85;;;14.68;;
40971;SDS011;26701;47.408;19.174;2023-01-09T06:05:29;31.10;;;14.98;;
40971;SDS011;26701;47.408;19.174;2023-01-09T06:07:55;32.03;;;14.93;;
40971;SDS011;26701;47.408;19.174;2023-01-09T06:10:21;32.20;;;14.55;;
40971;SDS011;26701;47.408;19.174;2023-01-09T06:12:48;30.13;;;15.85;;
40971;SDS011;26701;47.408;19.174;2023-01-09T06:15:15;31.27;;;15.88;;
40971;SDS011;26701;47.408;19.174;2023-01-09T06:17:41;36.28;;;17.73;;
40971;SDS011;26701;47.408;19.174;2023-01-09T06:20:07;35.33;;;16.35;;
40971;SDS011;26701;47.408;19.174;2023-01-09T06:22:34;31.20;;;15.90;;
40971;SDS011;26701;47.408;19.174;2023-01-09T06:25:00;34.00;;;17.73;;
40971;SDS011;26701;47.408;19.174;2023-01-09T06:27:26;39.80;;;16.48;;
40971;SDS011;26701;47.408;19.174;2023-01-09T06:29:52;33.92;;;15.65;;
40971;SDS011;26701;47.408;19.174;2023-01-09T06:32:18;41.45;;;18.08;;
40971;SDS011;26701;47.408;19.174;2023-01-09T06:34:45;34.22;;;15.52;;
40971;SDS011;26701;47.408;19.174;2023-01-09T06:37:11;36.80;;;16.75;;
40971;SDS011;26701;47.408;19.174;2023-01-09T06:39:37;37.17;;;17.58;;
40971;SDS011;26701;47.408;19.174;2023-01-09T06:42:03;34.25;;;17.90;;
40971;SDS011;26701;47.408;19.174;2023-01-09T06:44:29;44.53;;;19.20;;
40971;SDS011;26701;47.408;19.174;2023-01-09T06:46:57;28.90;;;13.85;;
40971;SDS011;26701;47.408;19.174;2023-01-09T06:49:23;32.88;;;15.45;;
40971;SDS011;26701;47.408;19.174;2023-01-09T06:51:49;26.38;;;14.60;;
40971;SDS011;26701;47.408;19.174;2023-01-09T06:54:16;26.73;;;14.32;;
40971;SDS011;26701;47.408;19.174;2023-01-09T06:56:42;30.30;;;15.25;;
40971;SDS011;26701;47.408;19.174;2023-01-09T06:59:08;27.08;;;12.23;;
40971;SDS011;26701;47.408;19.174;2023-01-09T07:01:34;25.02;;;12.68;;
40971;SDS011;26701;47.408;19.174;2023-01-09T07:04:00;26.38;;;12.02;;
40971;SDS011;26701;47.408;19.174;2023-01-09T07:06:26;32.13;;;13.75;;
40971;SDS011;26701;47.408;19.174;2023-01-09T07:08:52;23.15;;;12.40;;
40971;SDS011;26701;47.408;19.174;2023-01-09T07:11:17;28.30;;;12.63;;
40971;SDS011;26701;47.408;19.174;2023-01-09T07:13:43;26.92;;;13.80;;
40971;SDS011;26701;47.408;19.174;2023-01-09T07:16:09;24.45;;;12.63;;
40971;SDS011;26701;47.408;19.174;2023-01-09T07:18:35;30.15;;;13.80;;
40971;SDS011;26701;47.408;19.174;2023-01-09T07:21:01;36.50;;;15.10;;
40971;SDS011;26701;47.408;19.174;2023-01-09T07:23:27;27.77;;;13.68;;
40971;SDS011;26701;47.408;19.174;2023-01-09T07:25:53;26.65;;;13.02;;
40971;SDS011;26701;47.408;19.174;2023-01-09T07:28:19;24.70;;;11.00;;
40971;SDS011;26701;47.408;19.174;2023-01-09T07:30:45;26.75;;;13.50;;
40971;SDS011;26701;47.408;19.174;2023-01-09T07:33:11;27.52;;;13.32;;
40971;SDS011;26701;47.408;19.174;2023-01-09T07:35:37;25.90;;;12.32;;
40971;SDS011;26701;47.408;19.174;2023-01-09T07:38:03;27.90;;;13.35;;
40971;SDS011;26701;47.408;19.174;2023-01-09T07:40:29;23.92;;;11.95;;
40971;SDS011;26701;47.408;19.174;2023-01-09T07:42:55;25.42;;;12.10;;
40971;SDS011;26701;47.408;19.174;2023-01-09T07:45:20;31.35;;;14.30;;
40971;SDS011;26701;47.408;19.174;2023-01-09T07:47:46;31.30;;;14.45;;
40971;SDS011;26701;47.408;19.174;2023-01-09T07:50:12;29.83;;;14.57;;
40971;SDS011;26701;47.408;19.174;2023-01-09T07:52:38;31.10;;;14.50;;
40971;SDS011;26701;47.408;19.174;2023-01-09T07:55:05;32.33;;;15.30;;
40971;SDS011;26701;47.408;19.174;2023-01-09T07:57:31;29.27;;;12.70;;
40971;SDS011;26701;47.408;19.174;2023-01-09T07:59:56;24.98;;;13.65;;
40971;SDS011;26701;47.408;19.174;2023-01-09T08:02:25;23.35;;;12.95;;
40971;SDS011;26701;47.408;19.174;2023-01-09T08:04:51;26.83;;;13.63;;
40971;SDS011;26701;47.408;19.174;2023-01-09T08:07:17;28.02;;;14.45;;
40971;SDS011;26701;47.408;19.174;2023-01-09T08:09:43;28.20;;;13.07;;
40971;SDS011;26701;47.408;19.174;2023-01-09T08:12:09;31.02;;;13.48;;
40971;SDS011;26701;47.408;19.174;2023-01-09T08:14:35;26.48;;;13.60;;
40971;SDS011;26701;47.408;19.174;2023-01-09T08:17:01;31.73;;;14.80;;
40971;SDS011;26701;47.408;19.174;2023-01-09T08:19:27;30.45;;;14.65;;
40971;SDS011;26701;47.408;19.174;2023-01-09T08:21:52;27.73;;;13.95;;
40971;SDS011;26701;47.408;19.174;2023-01-09T08:24:18;30.13;;;15.18;;
40971;SDS011;26701;47.408;19.174;2023-01-09T08:26:44;31.35;;;14.38;;
40971;SDS011;26701;47.408;19.174;2023-01-09T08:29:10;29.00;;;13.55;;
40971;SDS011;26701;47.408;19.174;2023-01-09T08:31:36;27.65;;;14.18;;
40971;SDS011;26701;47.408;19.174;2023-01-09T08:34:02;27.25;;;14.55;;
40971;SDS011;26701;47.408;19.174;2023-01-09T08:36:28;35.03;;;16.20;;
40971;SDS011;26701;47.408;19.174;2023-01-09T08:38:54;40.08;;;17.73;;
40971;SDS011;26701;47.408;19.174;2023-01-09T08:41:20;30.85;;;15.25;;
40971;SDS011;26701;47.408;19.174;2023-01-09T08:44:04;32.83;;;15.38;;
40971;SDS011;26701;47.408;19.174;2023-01-09T08:46:49;33.50;;;15.93;;
40971;SDS011;26701;47.408;19.174;2023-01-09T08:49:30;27.50;;;13.52;;
40971;SDS011;26701;47.408;19.174;2023-01-09T08:51:57;31.88;;;14.43;;
40971;SDS011;26701;47.408;19.174;2023-01-09T08:54:23;32.55;;;16.05;;
40971;SDS011;26701;47.408;19.174;2023-01-09T08:56:49;29.95;;;14.68;;
40971;SDS011;26701;47.408;19.174;2023-01-09T08:59:15;29.20;;;14.63;;
40971;SDS011;26701;47.408;19.174;2023-01-09T09:01:41;27.27;;;16.33;;
40971;SDS011;26701;47.408;19.174;2023-01-09T09:04:08;30.40;;;15.98;;
40971;SDS011;26701;47.408;19.174;2023-01-09T09:06:34;35.38;;;16.58;;
40971;SDS011;26701;47.408;19.174;2023-01-09T09:09:00;38.17;;;17.75;;
40971;SDS011;26701;47.408;19.174;2023-01-09T09:11:30;36.92;;;15.85;;
40971;SDS011;26701;47.408;19.174;2023-01-09T09:14:00;30.38;;;14.98;;
40971;SDS011;26701;47.408;19.174;2023-01-09T09:16:46;31.42;;;16.15;;
40971;SDS011;26701;47.408;19.174;2023-01-09T09:19:12;26.88;;;14.40;;
40971;SDS011;26701;47.408;19.174;2023-01-09T09:21:38;30.02;;;15.30;;
40971;SDS011;26701;47.408;19.174;2023-01-09T09:24:04;31.80;;;18.00;;
40971;SDS011;26701;47.408;19.174;2023-01-09T09:26:30;30.13;;;15.18;;
40971;SDS011;26701;47.408;19.174;2023-01-09T09:28:57;30.10;;;15.40;;
40971;SDS011;26701;47.408;19.174;2023-01-09T09:31:22;30.65;;;16.58;;
40971;SDS011;26701;47.408;19.174;2023-01-09T09:33:48;43.53;;;18.88;;
40971;SDS011;26701;47.408;19.174;2023-01-09T09:36:14;38.83;;;18.23;;
40971;SDS011;26701;47.408;19.174;2023-01-09T09:38:40;37.22;;;19.63;;
40971;SDS011;26701;47.408;19.174;2023-01-09T09:47:05;37.70;;;18.75;;
40971;SDS011;26701;47.408;19.174;2023-01-09T09:49:38;44.20;;;20.98;;
40971;SDS011;26701;47.408;19.174;2023-01-09T09:54:55;37.78;;;19.40;;
40971;SDS011;26701;47.408;19.174;2023-01-09T09:57:27;32.20;;;16.60;;
40971;SDS011;26701;47.408;19.174;2023-01-09T09:59:56;40.30;;;19.15;;
40971;SDS011;26701;47.408;19.174;2023-01-09T10:02:27;32.20;;;15.77;;
40971;SDS011;26701;47.408;19.174;2023-01-09T10:05:11;34.85;;;16.42;;
40971;SDS011;26701;47.408;19.174;2023-01-09T10:07:44;34.33;;;15.70;;
40971;SDS011;26701;47.408;19.174;2023-01-09T10:10:25;30.95;;;16.85;;
40971;SDS011;26701;47.408;19.174;2023-01-09T10:12:57;37.70;;;18.08;;
40971;SDS011;26701;47.408;19.174;2023-01-09T10:15:27;27.55;;;15.30;;
40971;SDS011;26701;47.408;19.174;2023-01-09T10:26:15;36.65;;;18.42;;
40971;SDS011;26701;47.408;19.174;2023-01-09T10:31:34;30.95;;;15.20;;
40971;SDS011;26701;47.408;19.174;2023-01-09T10:34:27;29.17;;;14.70;;
40971;SDS011;26701;47.408;19.174;2023-01-09T10:37:04;37.30;;;17.23;;
40971;SDS011;26701;47.408;19.174;2023-01-09T10:42:07;34.65;;;16.40;;
40971;SDS011;26701;47.408;19.174;2023-01-09T10:44:44;28.75;;;14.57;;
40971;SDS011;26701;47.408;19.174;2023-01-09T10:47:16;32.53;;;16.63;;
40971;SDS011;26701;47.408;19.174;2023-01-09T10:49:45;30.73;;;15.50;;
40971;SDS011;26701;47.408;19.174;2023-01-09T10:52:16;38.05;;;18.17;;
40971;SDS011;26701;47.408;19.174;2023-01-09T10:54:54;49.30;;;20.75;;
40971;SDS011;26701;47.408;19.174;2023-01-09T11:00:04;33.72;;;17.20;;
40971;SDS011;26701;47.408;19.174;2023-01-09T11:02:32;33.25;;;18.02;;
40971;SDS011;26701;47.408;19.174;2023-01-09T11:05:00;40.70;;;18.92;;
40971;SDS011;26701;47.408;19.174;2023-01-09T11:07:27;35.92;;;17.17;;
40971;SDS011;26701;47.408;19.174;2023-01-09T11:09:57;37.55;;;17.50;;
40971;SDS011;26701;47.408;19.174;2023-01-09T11:12:29;29.90;;;16.15;;
40971;SDS011;26701;47.408;19.174;2023-01-09T11:17:40;36.00;;;17.77;;
40971;SDS011;26701;47.408;19.174;2023-01-09T11:22:53;36.65;;;18.45;;
40971;SDS011;26701;47.408;19.174;2023-01-09T11:25:22;41.80;;;19.38;;
40971;SDS011;26701;47.408;19.174;2023-01-09T11:30:29;38.95;;;18.00;;
40971;SDS011;26701;47.408;19.174;2023-01-09T11:32:58;40.58;;;19.30;;
40971;SDS011;26701;47.408;19.174;2023-01-09T11:35:28;43.33;;;22.80;;
40971;SDS011;26701;47.408;19.174;2023-01-09T11:38:03;43.78;;;20.75;;
40971;SDS011;26701;47.408;19.174;2023-01-09T11:40:37;34.35;;;19.10;;
40971;SDS011;26701;47.408;19.174;2023-01-09T11:43:15;37.22;;;17.92;;
40971;SDS011;26701;47.408;19.174;2023-01-09T11:45:48;42.33;;;20.52;;
40971;SDS011;26701;47.408;19.174;2023-01-09T11:50:54;46.35;;;22.73;;
40971;SDS011;26701;47.408;19.174;2023-01-09T11:53:22;43.47;;;22.45;;
40971;SDS011;26701;47.408;19.174;2023-01-09T11:55:52;39.33;;;23.33;;
40971;SDS011;26701;47.408;19.174;2023-01-09T11:58:26;48.45;;;21.65;;
40971;SDS011;26701;47.408;19.174;2023-01-09T12:15:24;52.42;;;24.30;;
40971;SDS011;26701;47.408;19.174;2023-01-09T12:42:28;42.72;;;21.25;;
40971;SDS011;26701;47.408;19.174;2023-01-09T12:44:50;48.35;;;24.08;;
40971;SDS011;26701;47.408;19.174;2023-01-09T12:47:34;41.38;;;21.73;;
40971;SDS011;26701;47.408;19.174;2023-01-09T12:55:34;39.38;;;21.35;;
40971;SDS011;26701;47.408;19.174;2023-01-09T12:58:16;37.72;;;19.60;;
40971;SDS011;26701;47.408;19.174;2023-01-09T13:00:51;42.88;;;22.08;;
40971;SDS011;26701;47.408;19.174;2023-01-09T13:06:15;40.70;;;20.95;;
40971;SDS011;26701;47.408;19.174;2023-01-09T13:08:44;46.78;;;23.13;;
40971;SDS011;26701;47.408;19.174;2023-01-09T13:11:30;45.67;;;21.98;;
40971;SDS011;26701;47.408;19.174;2023-01-09T13:14:19;44.65;;;23.10;;
40971;SDS011;26701;47.408;19.174;2023-01-09T13:16:51;47.35;;;22.05;;
40971;SDS011;26701;47.408;19.174;2023-01-09T13:19:27;43.97;;;21.63;;
40971;SDS011;26701;47.408;19.174;2023-01-09T13:21:58;48.10;;;22.63;;
40971;SDS011;26701;47.408;19.174;2023-01-09T13:27:08;43.87;;;22.57;;
40971;SDS011;26701;47.408;19.174;2023-01-09T13:29:39;47.67;;;24.08;;
40971;SDS011;26701;47.408;19.174;2023-01-09T13:32:17;40.90;;;20.73;;
40971;SDS011;26701;47.408;19.174;2023-01-09T13:34:52;47.97;;;22.90;;
40971;SDS011;26701;47.408;19.174;2023-01-09T13:37:32;51.50;;;25.33;;
40971;SDS011;26701;47.408;19.174;2023-01-09T13:40:33;51.33;;;25.45;;
40971;SDS011;26701;47.408;19.174;2023-01-09T13:42:54;49.83;;;26.38;;
40971;SDS011;26701;47.408;19.174;2023-01-09T13:45:24;49.15;;;25.08;;
40971;SDS011;26701;47.408;19.174;2023-01-09T13:50:39;40.88;;;21.85;;
40971;SDS011;26701;47.408;19.174;2023-01-09T13:58:24;51.20;;;27.73;;
40971;SDS011;26701;47.408;19.174;2023-01-09T14:00:57;55.05;;;28.58;;
40971;SDS011;26701;47.408;19.174;2023-01-09T14:08:19;53.67;;;25.08;;
40971;SDS011;26701;47.408;19.174;2023-01-09T14:10:51;53.20;;;25.30;;
40971;SDS011;26701;47.408;19.174;2023-01-09T14:13:22;48.88;;;24.17;;
40971;SDS011;26701;47.408;19.174;2023-01-09T14:16:06;46.85;;;24.27;;
40971;SDS011;26701;47.408;19.174;2023-01-09T14:18:40;41.90;;;21.38;;
40971;SDS011;26701;47.408;19.174;2023-01-09T14:21:14;42.17;;;21.33;;
40971;SDS011;26701;47.408;19.174;2023-01-09T14:23:48;44.30;;;21.25;;
40971;SDS011;26701;47.408;19.174;2023-01-09T14:26:16;40.75;;;20.25;;
40971;SDS011;26701;47.408;19.174;2023-01-09T14:28:47;45.63;;;20.73;;
40971;SDS011;26701;47.408;19.174;2023-01-09T14:31:34;51.03;;;23.40;;
40971;SDS011;26701;47.408;19.174;2023-01-09T14:36:51;53.58;;;24.08;;
40971;SDS011;26701;47.408;19.174;2023-01-09T14:39:19;40.15;;;20.98;;
40971;SDS011;26701;47.408;19.174;2023-01-09T14:41:55;40.40;;;20.20;;
40971;SDS011;26701;47.408;19.174;2023-01-09T14:52:47;60.53;;;29.45;;
40971;SDS011;26701;47.408;19.174;2023-01-09T14:55:25;60.30;;;29.92;;
40971;SDS011;26701;47.408;19.174;2023-01-09T14:58:10;48.78;;;25.45;;
40971;SDS011;26701;47.408;19.174;2023-01-09T15:00:44;60.60;;;31.17;;
40971;SDS011;26701;47.408;19.174;2023-01-09T15:03:35;58.72;;;29.50;;
40971;SDS011;26701;47.408;19.174;2023-01-09T15:06:20;65.78;;;32.40;;
40971;SDS011;26701;47.408;19.174;2023-01-09T15:08:50;56.90;;;29.00;;
40971;SDS011;26701;47.408;19.174;2023-01-09T15:11:25;60.38;;;30.50;;
40971;SDS011;26701;47.408;19.174;2023-01-09T15:13:52;56.05;;;30.50;;
40971;SDS011;26701;47.408;19.174;2023-01-09T15:16:22;58.72;;;31.33;;
40971;SDS011;26701;47.408;19.174;2023-01-09T15:18:50;62.15;;;31.17;;
40971;SDS011;26701;47.408;19.174;2023-01-09T15:21:23;55.50;;;28.27;;
40971;SDS011;26701;47.408;19.174;2023-01-09T15:23:51;48.10;;;26.42;;
40971;SDS011;26701;47.408;19.174;2023-01-09T15:29:10;61.63;;;29.90;;
40971;SDS011;26701;47.408;19.174;2023-01-09T15:31:42;64.38;;;30.35;;
40971;SDS011;26701;47.408;19.174;2023-01-09T15:34:14;72.33;;;34.07;;
40971;SDS011;26701;47.408;19.174;2023-01-09T15:36:44;62.10;;;30.13;;
40971;SDS011;26701;47.408;19.174;2023-01-09T15:39:14;61.40;;;30.95;;
40971;SDS011;26701;47.408;19.174;2023-01-09T15:41:51;65.25;;;32.33;;
40971;SDS011;26701;47.408;19.174;2023-01-09T15:44:38;56.60;;;28.48;;
40971;SDS011;26701;47.408;19.174;2023-01-09T15:47:07;73.63;;;36.45;;
40971;SDS011;26701;47.408;19.174;2023-01-09T15:49:46;74.68;;;36.25;;
40971;SDS011;26701;47.408;19.174;2023-01-09T15:52:13;68.75;;;35.97;;
40971;SDS011;26701;47.408;19.174;2023-01-09T15:54:41;66.82;;;33.17;;
40971;SDS011;26701;47.408;19.174;2023-01-09T15:59:54;95.80;;;39.50;;
40971;SDS011;26701;47.408;19.174;2023-01-09T16:02:22;74.70;;;35.75;;
40971;SDS011;26701;47.408;19.174;2023-01-09T16:05:07;62.75;;;30.83;;
40971;SDS011;26701;47.408;19.174;2023-01-09T16:07:48;50.95;;;26.80;;
40971;SDS011;26701;47.408;19.174;2023-01-09T16:10:22;56.22;;;27.92;;
40971;SDS011;26701;47.408;19.174;2023-01-09T16:12:58;56.50;;;28.88;;
40971;SDS011;26701;47.408;19.174;2023-01-09T16:15:24;69.30;;;31.08;;
40971;SDS011;26701;47.408;19.174;2023-01-09T16:20:42;62.70;;;33.58;;
40971;SDS011;26701;47.408;19.174;2023-01-09T16:23:22;57.40;;;27.63;;
40971;SDS011;26701;47.408;19.174;2023-01-09T16:26:11;53.63;;;25.65;;
40971;SDS011;26701;47.408;19.174;2023-01-09T16:28:37;58.60;;;27.70;;
40971;SDS011;26701;47.408;19.174;2023-01-09T16:34:05;49.58;;;24.50;;
40971;SDS011;26701;47.408;19.174;2023-01-09T16:36:34;55.45;;;27.15;;
40971;SDS011;26701;47.408;19.174;2023-01-09T16:39:00;50.70;;;26.13;;
40971;SDS011;26701;47.408;19.174;2023-01-09T16:41:28;56.25;;;29.20;;
40971;SDS011;26701;47.408;19.174;2023-01-09T16:44:13;59.55;;;28.20;;
40971;SDS011;26701;47.408;19.174;2023-01-09T16:46:40;61.22;;;33.42;;
40971;SDS011;26701;47.408;19.174;2023-01-09T16:49:14;78.40;;;41.38;;
40971;SDS011;26701;47.408;19.174;2023-01-09T16:51:47;65.38;;;33.65;;
40971;SDS011;26701;47.408;19.174;2023-01-09T16:54:14;68.15;;;35.15;;